Cedar Park's Hourly Summary for Thursday, May 10, 2018
Hour Temp
(f)
RH
(%)
Solar Rad.
(MJ/m2)
Rainfall
(in)
Wind
(mph)
5/10/2018 12:00 AM 72 63 0 0 6.42
5/10/2018 1:00 AM 70 75 0 0 6.25
5/10/2018 2:00 AM 68 88 0 0 6.19
5/10/2018 3:00 AM 67 90 0 0 5.82
5/10/2018 4:00 AM 67 92 0 0 4.96
5/10/2018 5:00 AM 66 95 0 0 3.67
5/10/2018 6:00 AM 65 96 0 0 3.66
5/10/2018 7:00 AM 66 96 0.08 0 4.02
5/10/2018 8:00 AM 68 94 0.55 0 5.81
5/10/2018 9:00 AM 71 85 1.54 0 8.01
5/10/2018 10:00 AM 75 71 2.83 0 8.01
5/10/2018 11:00 AM 76 57 3.22 0 7.92
5/10/2018 12:00 PM 78 52 3.4 0 8.03
5/10/2018 1:00 PM 80 45 3.46 0 8.03
5/10/2018 2:00 PM 82 42 3.46 0 7.43
5/10/2018 3:00 PM 83 40 3.27 0 7.63
5/10/2018 4:00 PM 83 40 2.46 0 7.63
5/10/2018 5:00 PM 83 39 1.5 0 8.37
5/10/2018 6:00 PM 83 42 0.24 0 8.37
5/10/2018 7:00 PM 83 42 0.21 0 6.93
5/10/2018 8:00 PM 82 42 0.21 0 5.61
5/10/2018 9:00 PM 79 53 0.01 0 6.47
5/10/2018 10:00 PM 78 65 0 0 8.39
5/10/2018 11:00 PM 76 73 0 0 8.5
Data Summary 75 65 26.44 0.00 6.76